Barkhamsted, Connecticut
Current Conditions -  °F | °C
As of 11:51 PM on Saturday 25 Oct 2014 (Local Time) from KBDL Reporting Station
Broken Clouds Broken Clouds  
Wind Chill: 58°   Ceiling: 12000
Heat Index: 58°   Visibility: 10mi
Dew Point: 44°   Wind: 10mph
Humidity: 60%   Direction: 290°WNW
Pressure: 29.53"   Gusts: NA
Location:  41.9398°N, 72.9667°W
Report Text: KBDL 260351Z 29009KT 10SM BKN120 14/07 A2953 RMK AO2 SLP999 T01440067
Loading
Personal Weather Stations






























Interactive Weather Map
Tropical Storm Tracking
New forecast layout! Learn more

10-Day Weather Forecast

Advertisements
Track Severe Weather on mobile